createdAt,value
2018-03-22T00:00:04.357Z,16.90
2018-03-22T00:01:04.146Z,17.30
2018-03-22T00:02:04.169Z,17.00
2018-03-22T00:03:03.996Z,17.20
2018-03-22T00:04:04.109Z,17.50
2018-03-22T00:05:03.822Z,17.60
2018-03-22T00:06:03.785Z,17.90
2018-03-22T00:07:03.665Z,16.90
2018-03-22T00:08:03.697Z,17.50
2018-03-22T00:09:03.516Z,17.60
2018-03-22T00:10:03.503Z,15.60
2018-03-22T00:11:03.341Z,16.50
2018-03-22T00:12:03.308Z,16.10
2018-03-22T00:13:03.170Z,16.30
2018-03-22T00:14:03.252Z,17.20
2018-03-22T00:15:03.002Z,16.60
2018-03-22T00:16:03.034Z,16.50
2018-03-22T00:17:02.873Z,15.80
2018-03-22T00:18:02.837Z,16.00
2018-03-22T00:19:02.681Z,15.90
2018-03-22T00:20:02.786Z,17.40
2018-03-22T00:21:02.516Z,17.30
2018-03-22T00:22:02.549Z,16.80
2018-03-22T00:23:02.407Z,17.10
2018-03-22T00:24:02.360Z,17.10
2018-03-22T00:25:02.189Z,16.80
2018-03-22T00:26:02.179Z,16.70
2018-03-22T00:27:01.994Z,17.60
2018-03-22T00:28:01.970Z,17.20
2018-03-22T00:29:01.831Z,17.50
2018-03-22T00:30:04.454Z,17.80
2018-03-22T00:31:01.673Z,17.10
2018-03-22T00:32:01.691Z,16.30
2018-03-22T00:33:01.500Z,18.70
2018-03-22T00:34:01.501Z,16.60
2018-03-22T00:35:01.361Z,17.30
2018-03-22T00:36:01.312Z,17.60
2018-03-22T00:37:01.917Z,16.70
2018-03-22T00:38:01.116Z,16.20
2018-03-22T00:39:01.016Z,17.10
2018-03-22T00:40:01.102Z,17.00
2018-03-22T00:41:00.858Z,17.40
2018-03-22T00:42:00.832Z,17.50
2018-03-22T00:43:00.677Z,17.80
2018-03-22T00:44:00.650Z,16.70
2018-03-22T00:45:00.504Z,17.80
2018-03-22T00:46:00.492Z,18.10
2018-03-22T00:47:00.335Z,17.00
2018-03-22T00:48:00.378Z,17.60
2018-03-22T00:49:00.167Z,18.00
2018-03-22T00:50:00.170Z,17.90
2018-03-22T00:51:00.019Z,17.90
2018-03-22T00:51:59.978Z,17.30
2018-03-22T00:52:59.828Z,18.40
2018-03-22T00:53:59.785Z,17.70
2018-03-22T00:54:59.674Z,17.10
2018-03-22T00:55:59.743Z,18.70
2018-03-22T00:56:59.498Z,18.60
2018-03-22T00:57:59.509Z,18.00
2018-03-22T00:58:59.329Z,17.10
2018-03-22T00:59:59.316Z,18.60
2018-03-22T01:00:59.175Z,18.50
2018-03-22T01:01:59.119Z,18.00
2018-03-22T01:02:58.993Z,18.70
2018-03-22T01:03:59.036Z,18.50
2018-03-22T01:04:58.825Z,17.30
2018-03-22T01:05:59.910Z,19.10
2018-03-22T01:06:58.764Z,18.00
2018-03-22T01:07:58.648Z,18.50
2018-03-22T01:08:58.499Z,19.20
2018-03-22T01:09:58.480Z,17.80
2018-03-22T01:10:58.343Z,17.50
2018-03-22T01:11:58.300Z,17.70
2018-03-22T01:12:58.167Z,17.30
2018-03-22T01:13:58.180Z,19.00
2018-03-22T01:14:58.001Z,18.10
2018-03-22T01:15:57.984Z,18.40
2018-03-22T01:16:57.853Z,18.90
2018-03-22T01:17:57.786Z,19.00
2018-03-22T01:18:57.667Z,17.80
2018-03-22T01:19:57.706Z,17.90
2018-03-22T01:20:57.510Z,17.60
2018-03-22T01:21:57.552Z,18.40
2018-03-22T01:22:57.340Z,17.30
2018-03-22T01:23:57.316Z,17.70
2018-03-22T01:24:57.169Z,18.20
2018-03-22T01:25:57.127Z,18.20
2018-03-22T01:26:57.926Z,17.90
2018-03-22T01:27:56.969Z,18.70
2018-03-22T01:28:56.827Z,18.80
2018-03-22T01:29:56.885Z,17.90
2018-03-22T01:30:56.672Z,18.90
2018-03-22T01:31:56.692Z,18.10
2018-03-22T01:32:56.515Z,19.30
2018-03-22T01:35:38.346Z,18.80
2018-03-22T01:36:38.416Z,17.80
2018-03-22T01:37:38.204Z,18.40
2018-03-22T01:38:38.182Z,18.40
2018-03-22T01:39:38.021Z,18.90
2018-03-22T01:40:37.977Z,19.40
2018-03-22T01:41:37.847Z,19.10
2018-03-22T01:42:37.827Z,19.40
2018-03-22T01:43:37.685Z,19.20
2018-03-22T01:44:37.695Z,18.90
2018-03-22T01:45:37.511Z,19.60
2018-03-22T01:46:37.505Z,19.90
2018-03-22T01:47:37.479Z,20.70
2018-03-22T01:48:37.309Z,18.90
2018-03-22T01:49:37.177Z,19.90
2018-03-22T01:50:37.923Z,20.70
2018-03-22T01:51:37.008Z,20.30
2018-03-22T01:52:37.072Z,20.40
2018-03-22T01:53:36.872Z,19.30
2018-03-22T01:54:36.839Z,19.50
2018-03-22T01:55:36.686Z,18.40
2018-03-22T01:56:36.645Z,19.80
2018-03-22T01:57:36.522Z,20.50
2018-03-22T01:58:36.488Z,20.10
2018-03-22T01:59:36.338Z,19.60
2018-03-22T02:00:36.393Z,20.20
2018-03-22T02:01:36.178Z,19.70
2018-03-22T02:02:36.178Z,19.20
2018-03-22T02:03:36.057Z,18.30
2018-03-22T02:04:35.982Z,19.70
2018-03-22T02:05:35.848Z,19.70
2018-03-22T02:06:35.893Z,19.30
2018-03-22T02:07:35.690Z,20.30
2018-03-22T02:08:35.714Z,20.90
2018-03-22T02:09:35.538Z,20.10
2018-03-22T02:10:35.513Z,20.00
2018-03-22T02:11:35.346Z,20.20
2018-03-22T02:12:35.317Z,19.90
2018-03-22T02:13:35.186Z,20.80
2018-03-22T02:14:35.168Z,20.20
2018-03-22T02:15:35.014Z,19.50
2018-03-22T02:16:35.037Z,20.90
2018-03-22T02:17:34.862Z,20.30
2018-03-22T02:18:35.055Z,19.70
2018-03-22T02:19:34.715Z,20.00
2018-03-22T02:20:34.663Z,21.40
2018-03-22T02:21:34.515Z,19.80
2018-03-22T02:22:34.465Z,20.20
2018-03-22T02:23:34.363Z,20.40
2018-03-22T02:24:34.408Z,20.40
2018-03-22T02:25:34.189Z,20.10
2018-03-22T02:26:34.188Z,20.00
2018-03-22T02:27:34.032Z,19.60
2018-03-22T02:28:33.996Z,19.30
2018-03-22T02:29:33.887Z,20.10
2018-03-22T02:30:33.811Z,21.00
2018-03-22T02:31:33.684Z,19.20
2018-03-22T02:32:33.712Z,19.10
2018-03-22T02:33:33.515Z,18.10
2018-03-22T02:34:33.528Z,18.40
2018-03-22T02:35:33.365Z,17.80
2018-03-22T02:36:33.338Z,17.80
2018-03-22T02:37:33.202Z,17.70
2018-03-22T02:38:33.254Z,17.70
2018-03-22T02:39:33.017Z,17.60
2018-03-22T02:40:33.080Z,17.70
2018-03-22T02:41:32.858Z,17.50
2018-03-22T02:42:32.869Z,17.50
2018-03-22T02:43:32.686Z,16.90
2018-03-22T02:46:14.872Z,17.50
2018-03-22T02:47:14.870Z,17.40
2018-03-22T02:48:14.702Z,17.40
2018-03-22T02:49:14.682Z,17.70
2018-03-22T02:50:14.589Z,17.60
2018-03-22T02:51:14.512Z,17.50
2018-03-22T02:52:14.366Z,18.00
2018-03-22T02:53:14.451Z,17.70
2018-03-22T02:54:14.202Z,17.50
2018-03-22T02:55:14.200Z,17.40
2018-03-22T02:56:14.067Z,18.30
2018-03-22T02:57:14.009Z,17.90
2018-03-22T02:58:13.864Z,18.40
2018-03-22T02:59:13.817Z,17.80
2018-03-22T03:00:13.700Z,18.60
2018-03-22T03:01:13.756Z,17.50
2018-03-22T03:02:13.538Z,18.30
2018-03-22T03:03:13.642Z,17.80
2018-03-22T03:04:13.376Z,18.10
2018-03-22T03:05:13.355Z,17.90
2018-03-22T03:06:13.250Z,17.90
2018-03-22T03:07:13.204Z,18.40
2018-03-22T03:08:13.041Z,18.20
2018-03-22T03:09:13.067Z,18.30
2018-03-22T03:10:12.870Z,19.20
2018-03-22T03:11:12.900Z,18.80
2018-03-22T03:12:12.741Z,19.20
2018-03-22T03:13:12.684Z,18.60
2018-03-22T03:14:12.550Z,18.60
2018-03-22T03:15:12.594Z,18.50
2018-03-22T03:16:12.412Z,18.50
2018-03-22T03:17:12.451Z,18.80
2018-03-22T03:18:12.214Z,18.50
2018-03-22T03:19:12.208Z,18.40
2018-03-22T03:20:12.065Z,19.30
2018-03-22T03:21:12.071Z,19.00
2018-03-22T03:22:11.895Z,18.30
2018-03-22T03:23:11.941Z,19.10
2018-03-22T03:24:11.720Z,18.60
2018-03-22T03:25:11.741Z,19.10
2018-03-22T03:26:11.707Z,19.40
2018-03-22T03:27:11.545Z,19.30
2018-03-22T03:28:11.395Z,19.50
2018-03-22T03:29:11.926Z,19.80
2018-03-22T03:30:11.232Z,19.90
2018-03-22T03:31:11.268Z,20.20
2018-03-22T03:32:11.077Z,19.60
2018-03-22T03:33:11.083Z,19.90
2018-03-22T03:34:10.901Z,19.50
2018-03-22T03:35:10.885Z,20.10
2018-03-22T03:36:10.734Z,19.80
2018-03-22T03:37:10.724Z,21.20
2018-03-22T03:38:10.577Z,20.50
2018-03-22T03:39:10.605Z,20.60
2018-03-22T03:40:10.403Z,20.80
2018-03-22T03:41:10.411Z,20.30
2018-03-22T03:42:10.262Z,21.30
2018-03-22T03:43:10.217Z,21.20
2018-03-22T03:44:10.095Z,21.40
2018-03-22T03:45:10.033Z,21.00
2018-03-22T03:46:09.909Z,21.40
2018-03-22T03:47:09.945Z,21.90
2018-03-22T03:48:09.759Z,21.00
2018-03-22T03:49:09.751Z,21.30
2018-03-22T03:50:09.576Z,21.70
2018-03-22T03:51:09.563Z,21.50
2018-03-22T03:52:09.483Z,21.40
2018-03-22T03:53:09.392Z,21.50
2018-03-22T03:54:09.254Z,22.00
2018-03-22T03:55:09.286Z,21.50
2018-03-22T03:56:09.100Z,22.00
2018-03-22T03:57:09.083Z,21.70
2018-03-22T03:58:08.941Z,21.50
2018-03-22T03:59:08.977Z,23.10
2018-03-22T04:00:08.766Z,22.30
2018-03-22T04:01:09.135Z,22.60
2018-03-22T04:02:08.616Z,23.40
2018-03-22T04:03:09.489Z,22.30
2018-03-22T04:04:08.428Z,23.10
2018-03-22T04:05:08.447Z,22.30
2018-03-22T04:06:08.266Z,23.30
2018-03-22T04:07:08.221Z,22.40
2018-03-22T04:08:08.098Z,21.50
2018-03-22T04:09:08.134Z,23.60
2018-03-22T04:10:07.959Z,23.00
2018-03-22T04:11:07.945Z,24.10
2018-03-22T04:12:07.769Z,22.90
2018-03-22T04:13:07.753Z,22.90
2018-03-22T04:14:07.606Z,23.10
2018-03-22T04:15:07.604Z,23.40
2018-03-22T04:16:07.557Z,23.90
2018-03-22T04:17:07.472Z,24.20
2018-03-22T04:18:07.279Z,23.50
2018-03-22T04:19:07.386Z,23.60
2018-03-22T04:20:07.125Z,23.80
2018-03-22T04:21:07.117Z,24.50
2018-03-22T04:22:06.954Z,23.30
2018-03-22T04:23:07.001Z,23.70
2018-03-22T04:24:06.784Z,23.70
2018-03-22T04:25:06.805Z,24.70
2018-03-22T04:26:06.630Z,24.00
2018-03-22T04:27:06.627Z,24.20
2018-03-22T04:28:06.455Z,24.20
2018-03-22T04:29:06.946Z,24.80
2018-03-22T04:30:06.293Z,24.70
2018-03-22T04:31:06.267Z,23.70
2018-03-22T04:32:06.135Z,24.40
2018-03-22T04:33:06.147Z,24.50
2018-03-22T04:34:05.974Z,24.50
2018-03-22T04:35:05.953Z,23.60
2018-03-22T04:36:05.816Z,24.70
2018-03-22T04:37:05.765Z,25.00
2018-03-22T04:38:05.640Z,24.60
2018-03-22T04:39:05.680Z,25.10
2018-03-22T04:40:05.461Z,24.30
2018-03-22T04:41:05.511Z,25.70
2018-03-22T04:42:05.318Z,24.00
2018-03-22T04:43:05.299Z,24.90
2018-03-22T04:44:05.139Z,25.00
2018-03-22T04:45:05.094Z,23.40
2018-03-22T04:46:04.964Z,24.60
2018-03-22T04:47:04.942Z,24.30
2018-03-22T04:48:04.815Z,25.40
2018-03-22T04:49:04.828Z,24.70
2018-03-22T04:50:04.638Z,24.80
2018-03-22T04:51:04.625Z,24.10
2018-03-22T04:52:04.606Z,24.40
2018-03-22T04:53:04.435Z,24.60
2018-03-22T04:54:04.314Z,24.90
2018-03-22T04:55:04.351Z,24.80
2018-03-22T04:56:04.148Z,25.10
2018-03-22T04:57:04.153Z,25.10
2018-03-22T04:58:04.001Z,25.40
2018-03-22T04:59:03.960Z,25.10
2018-03-22T05:00:03.829Z,24.50
2018-03-22T05:01:03.777Z,24.80
2018-03-22T05:02:03.652Z,24.60
2018-03-22T05:03:04.645Z,24.20
2018-03-22T05:04:03.485Z,24.90
2018-03-22T05:05:03.493Z,24.20
2018-03-22T05:06:03.900Z,24.10
2018-03-22T05:08:45.386Z,25.10
2018-03-22T05:09:45.407Z,25.90
2018-03-22T05:10:45.210Z,24.80
2018-03-22T05:11:45.206Z,24.00
2018-03-22T05:12:45.073Z,25.50
2018-03-22T05:13:45.010Z,25.40
2018-03-22T05:14:44.887Z,25.60
2018-03-22T05:15:44.933Z,24.40
2018-03-22T05:16:44.719Z,25.00
2018-03-22T05:17:44.757Z,25.30
2018-03-22T05:18:44.679Z,25.90
2018-03-22T05:19:44.539Z,24.90
2018-03-22T05:20:44.387Z,25.40
2018-03-22T05:21:44.354Z,25.30
2018-03-22T05:22:44.260Z,24.80
2018-03-22T05:23:44.264Z,25.70
2018-03-22T05:24:44.065Z,24.90
2018-03-22T05:25:44.071Z,25.20
2018-03-22T05:26:43.896Z,25.10
2018-03-22T05:27:44.938Z,24.80
2018-03-22T05:28:43.723Z,24.60
2018-03-22T05:29:43.685Z,30.00
2018-03-22T05:30:43.567Z,28.50
2018-03-22T05:31:44.452Z,34.10
2018-03-22T05:32:43.400Z,27.50
2018-03-22T05:33:43.438Z,28.60
2018-03-22T05:34:43.235Z,28.60
2018-03-22T05:37:25.380Z,26.30
2018-03-22T05:38:25.418Z,25.70
2018-03-22T05:39:25.224Z,26.00
2018-03-22T05:40:25.235Z,26.00
2018-03-22T05:41:25.048Z,25.50
2018-03-22T05:42:25.035Z,26.10
2018-03-22T05:43:24.889Z,26.30
2018-03-22T05:44:24.868Z,26.00
2018-03-22T05:45:24.716Z,25.70
2018-03-22T05:46:24.778Z,25.60
2018-03-22T05:47:24.572Z,26.10
2018-03-22T05:48:24.569Z,25.40
2018-03-22T05:49:24.403Z,26.10
2018-03-22T05:50:24.370Z,26.10
2018-03-22T05:51:24.218Z,26.70
2018-03-22T05:52:24.176Z,27.30
2018-03-22T05:53:24.054Z,26.90
2018-03-22T05:54:24.155Z,26.00
2018-03-22T05:55:23.961Z,25.30
2018-03-22T05:56:23.941Z,26.90
2018-03-22T05:57:23.727Z,25.40
2018-03-22T05:58:23.729Z,25.80
2018-03-22T05:59:23.571Z,25.30
2018-03-22T06:00:23.557Z,24.90
2018-03-22T06:01:23.396Z,25.00
2018-03-22T06:02:23.421Z,25.20
2018-03-22T06:03:23.234Z,25.90
2018-03-22T06:04:23.222Z,25.80
2018-03-22T06:05:23.082Z,26.10
2018-03-22T06:06:23.035Z,25.60
2018-03-22T06:07:22.932Z,25.60
2018-03-22T06:08:22.948Z,25.90
2018-03-22T06:09:22.746Z,26.10
2018-03-22T06:10:23.137Z,26.10
2018-03-22T06:11:22.581Z,25.70
2018-03-22T06:14:04.440Z,25.30
2018-03-22T06:15:04.351Z,25.90
2018-03-22T06:16:04.299Z,26.10
2018-03-22T06:17:04.179Z,24.80
2018-03-22T06:18:04.079Z,24.80
2018-03-22T06:19:04.967Z,24.70
2018-03-22T06:20:03.889Z,24.50
2018-03-22T06:21:03.922Z,25.60
2018-03-22T06:22:03.731Z,23.80
2018-03-22T06:23:03.696Z,24.90
2018-03-22T06:24:03.598Z,24.90
2018-03-22T06:25:03.603Z,25.00
2018-03-22T06:26:03.389Z,26.80
2018-03-22T06:27:03.440Z,25.90
2018-03-22T06:28:03.236Z,27.50
2018-03-22T06:29:03.219Z,27.90
2018-03-22T06:30:03.062Z,27.40
2018-03-22T06:31:03.035Z,27.00
2018-03-22T06:32:02.929Z,27.00
2018-03-22T06:33:02.869Z,26.70
2018-03-22T06:34:02.732Z,27.80
2018-03-22T06:35:02.746Z,26.60
2018-03-22T06:36:02.568Z,26.90
2018-03-22T06:37:02.557Z,27.00
2018-03-22T06:38:02.424Z,25.20
2018-03-22T06:39:02.430Z,27.40
2018-03-22T06:40:02.242Z,26.60
2018-03-22T06:41:02.275Z,26.80
2018-03-22T06:42:02.074Z,26.80
2018-03-22T06:43:02.144Z,27.60
2018-03-22T06:44:01.932Z,27.30
2018-03-22T06:45:01.921Z,27.30
2018-03-22T06:46:01.762Z,27.30
2018-03-22T06:48:43.977Z,27.90
2018-03-22T06:49:43.905Z,28.40
2018-03-22T06:50:43.723Z,27.60
2018-03-22T06:51:43.764Z,26.80
2018-03-22T06:52:43.561Z,27.90
2018-03-22T06:53:43.510Z,27.60
2018-03-22T06:54:43.389Z,27.70
2018-03-22T06:55:43.430Z,26.20
2018-03-22T06:56:43.227Z,27.00
2018-03-22T06:57:43.283Z,27.20
2018-03-22T06:58:43.059Z,24.70
2018-03-22T06:59:43.085Z,24.40
2018-03-22T07:00:42.894Z,24.80
2018-03-22T07:01:42.862Z,25.10
2018-03-22T07:02:42.735Z,26.30
2018-03-22T07:03:42.766Z,26.70
2018-03-22T07:04:42.580Z,25.60
2018-03-22T07:05:42.610Z,24.60
2018-03-22T07:06:42.405Z,24.40
2018-03-22T07:07:42.959Z,23.90
2018-03-22T07:08:42.231Z,24.70
2018-03-22T07:09:42.199Z,32.50
2018-03-22T07:10:42.085Z,28.50
2018-03-22T07:11:42.112Z,29.30
2018-03-22T07:12:41.904Z,26.70
2018-03-22T07:13:41.929Z,25.60
2018-03-22T07:14:41.737Z,26.10
2018-03-22T07:15:41.763Z,26.80
2018-03-22T07:16:41.593Z,26.60
2018-03-22T07:17:41.586Z,28.10
2018-03-22T07:18:41.430Z,28.00
2018-03-22T07:19:41.446Z,28.10
2018-03-22T07:20:41.268Z,28.30
2018-03-22T07:21:41.285Z,29.30
2018-03-22T07:22:41.075Z,28.20
2018-03-22T07:23:41.051Z,29.10
2018-03-22T07:24:40.921Z,29.60
2018-03-22T07:25:40.860Z,29.10
2018-03-22T07:26:40.775Z,28.00
2018-03-22T07:27:40.782Z,29.20
2018-03-22T07:28:40.588Z,29.80
2018-03-22T07:29:40.587Z,31.80
2018-03-22T07:30:40.429Z,27.40
2018-03-22T07:31:40.429Z,25.60
2018-03-22T07:32:40.256Z,25.80
2018-03-22T07:33:40.214Z,23.90
2018-03-22T07:34:40.080Z,24.50
2018-03-22T07:35:40.120Z,24.90
2018-03-22T07:36:39.934Z,26.00
2018-03-22T07:37:39.911Z,26.00
2018-03-22T07:38:39.783Z,26.90
2018-03-22T07:39:39.737Z,26.80
2018-03-22T07:40:39.625Z,26.20
2018-03-22T07:41:39.678Z,25.40
2018-03-22T07:42:39.429Z,25.90
2018-03-22T07:43:39.448Z,25.30
2018-03-22T07:44:39.263Z,24.90
2018-03-22T07:45:39.252Z,25.60
2018-03-22T07:46:39.122Z,26.50
2018-03-22T07:47:39.028Z,26.60
2018-03-22T07:48:38.936Z,26.90
2018-03-22T07:49:38.922Z,24.80
2018-03-22T07:50:38.774Z,24.30
2018-03-22T07:51:38.824Z,25.10
2018-03-22T07:52:38.677Z,24.80
2018-03-22T07:53:38.543Z,25.70
2018-03-22T07:54:38.545Z,24.00
2018-03-22T07:55:38.362Z,24.40
2018-03-22T07:56:38.288Z,22.30
2018-03-22T07:57:38.242Z,22.40
2018-03-22T07:58:38.107Z,23.40
2018-03-22T07:59:38.123Z,22.90
2018-03-22T08:00:37.937Z,21.90
2018-03-22T08:01:37.930Z,21.20
2018-03-22T08:02:37.785Z,22.70
2018-03-22T08:03:37.698Z,24.50
2018-03-22T08:04:37.607Z,24.10
2018-03-22T08:05:37.566Z,24.00
2018-03-22T08:06:37.444Z,23.00
2018-03-22T08:07:37.397Z,23.00
2018-03-22T08:08:37.277Z,24.50
2018-03-22T08:09:37.239Z,24.50
2018-03-22T08:10:37.116Z,24.70
2018-03-22T08:11:37.037Z,22.90
2018-03-22T08:12:36.975Z,23.90
2018-03-22T08:13:36.898Z,24.10
2018-03-22T08:14:36.856Z,24.80
2018-03-22T08:15:36.714Z,23.30
2018-03-22T08:16:36.614Z,23.00
2018-03-22T08:17:36.577Z,23.30
2018-03-22T08:18:36.462Z,22.70
2018-03-22T08:19:36.373Z,24.80
2018-03-22T08:20:36.351Z,24.60
2018-03-22T08:21:36.214Z,23.90
2018-03-22T08:22:36.244Z,24.30
2018-03-22T08:23:36.053Z,24.80
2018-03-22T08:24:35.972Z,22.80
2018-03-22T08:25:35.888Z,24.60
2018-03-22T08:26:36.427Z,24.40
2018-03-22T08:27:35.715Z,25.50
2018-03-22T08:28:35.637Z,24.80
2018-03-22T08:29:35.577Z,25.60
2018-03-22T08:30:35.457Z,24.80
2018-03-22T08:31:35.411Z,23.90
2018-03-22T08:32:35.329Z,23.10
2018-03-22T08:33:35.273Z,23.20
2018-03-22T08:34:35.146Z,23.50
2018-03-22T08:35:35.112Z,23.00
2018-03-22T08:36:34.974Z,22.40
2018-03-22T08:37:34.938Z,22.50
2018-03-22T08:38:34.835Z,21.80
2018-03-22T08:39:34.733Z,23.10
2018-03-22T08:40:34.660Z,21.80
2018-03-22T08:41:34.569Z,22.90
2018-03-22T08:42:34.471Z,21.60
2018-03-22T08:43:34.398Z,22.30
2018-03-22T08:44:34.336Z,23.00
2018-03-22T08:45:34.232Z,23.30
2018-03-22T08:46:34.141Z,23.50
2018-03-22T08:47:34.121Z,24.10
2018-03-22T08:48:33.974Z,23.60
2018-03-22T08:49:33.914Z,24.50
2018-03-22T08:50:33.864Z,23.40
2018-03-22T08:51:33.755Z,24.20
2018-03-22T08:52:33.648Z,22.80
2018-03-22T08:53:33.572Z,23.40
2018-03-22T08:54:33.498Z,22.80
2018-03-22T08:55:33.428Z,23.70
2018-03-22T08:56:33.320Z,23.00
2018-03-22T08:57:33.261Z,24.40
2018-03-22T08:58:33.151Z,23.40
2018-03-22T08:59:33.083Z,23.10
2018-03-22T09:00:33.007Z,22.70
2018-03-22T09:01:32.940Z,21.60
2018-03-22T09:02:32.888Z,21.10
2018-03-22T09:03:32.753Z,22.00
2018-03-22T09:04:32.671Z,21.20
2018-03-22T09:05:32.589Z,22.20
2018-03-22T09:06:32.492Z,22.20
2018-03-22T09:07:32.506Z,22.60
2018-03-22T09:08:32.365Z,21.90
2018-03-22T09:09:32.253Z,21.70
2018-03-22T09:10:32.239Z,22.50
2018-03-22T09:11:32.106Z,22.90
2018-03-22T09:12:31.996Z,21.80
2018-03-22T09:13:31.946Z,23.20
2018-03-22T09:14:31.830Z,23.50
2018-03-22T09:15:31.764Z,22.80
2018-03-22T09:16:31.671Z,22.80
2018-03-22T09:17:31.631Z,22.80
2018-03-22T09:18:31.503Z,24.00
2018-03-22T09:19:31.432Z,24.00
2018-03-22T09:20:31.336Z,24.00
2018-03-22T09:21:31.283Z,24.40
2018-03-22T09:22:31.192Z,23.90
2018-03-22T09:23:31.103Z,24.30
2018-03-22T09:24:31.033Z,23.80
2018-03-22T09:25:30.950Z,23.90
2018-03-22T09:26:30.849Z,23.10
2018-03-22T09:27:30.801Z,25.30
2018-03-22T09:28:30.692Z,25.40
2018-03-22T09:29:30.604Z,23.70
2018-03-22T09:30:30.519Z,23.30
2018-03-22T09:31:30.440Z,25.20
2018-03-22T09:32:30.367Z,24.20
2018-03-22T09:33:30.297Z,24.60
2018-03-22T09:34:30.193Z,25.90
2018-03-22T09:35:30.115Z,25.90
2018-03-22T09:36:30.043Z,25.20
2018-03-22T09:37:29.953Z,25.70
2018-03-22T09:38:29.891Z,25.70
2018-03-22T09:39:29.796Z,25.90
2018-03-22T09:40:29.754Z,26.60
2018-03-22T09:41:29.620Z,26.50
2018-03-22T09:42:29.532Z,25.80
2018-03-22T09:43:29.479Z,26.30
2018-03-22T09:44:29.368Z,26.50
2018-03-22T09:45:29.308Z,26.50
2018-03-22T09:46:29.205Z,25.80
2018-03-22T09:47:29.123Z,24.60
2018-03-22T09:48:29.053Z,24.70
2018-03-22T09:49:28.973Z,24.80
2018-03-22T09:50:28.876Z,24.30
2018-03-22T09:51:28.809Z,24.40
2018-03-22T09:52:28.703Z,25.60
2018-03-22T09:53:28.655Z,24.50
2018-03-22T09:54:28.532Z,24.30
2018-03-22T09:55:28.473Z,23.80
2018-03-22T09:56:28.379Z,25.00
2018-03-22T09:57:28.314Z,24.50
2018-03-22T09:58:28.241Z,24.80
2018-03-22T09:59:28.138Z,25.30
2018-03-22T10:00:28.121Z,25.70
2018-03-22T10:01:27.974Z,26.10
2018-03-22T10:02:28.948Z,25.50
2018-03-22T10:03:27.841Z,24.00
2018-03-22T10:04:27.748Z,24.60
2018-03-22T10:05:27.653Z,25.40
2018-03-22T10:06:27.566Z,24.30
2018-03-22T10:07:27.499Z,25.00
2018-03-22T10:08:27.449Z,25.50
2018-03-22T10:09:27.335Z,25.00
2018-03-22T10:10:27.252Z,25.40
2018-03-22T10:11:27.153Z,26.00
2018-03-22T10:12:27.056Z,26.50
2018-03-22T10:13:27.048Z,25.70
2018-03-22T10:14:26.923Z,25.10
2018-03-22T10:15:26.871Z,25.00
2018-03-22T10:16:26.723Z,24.70
2018-03-22T10:17:26.658Z,25.20
2018-03-22T10:18:26.573Z,26.20
2018-03-22T10:19:26.517Z,26.30
2018-03-22T10:20:26.429Z,26.50
2018-03-22T10:21:26.336Z,26.10
2018-03-22T10:22:26.244Z,24.50
2018-03-22T10:23:26.166Z,26.10
2018-03-22T10:24:26.074Z,25.80
2018-03-22T10:25:26.043Z,24.90
2018-03-22T10:26:25.908Z,24.90
2018-03-22T10:27:25.850Z,24.90
2018-03-22T10:28:25.749Z,24.90
2018-03-22T10:29:25.685Z,25.00
2018-03-22T10:30:25.707Z,25.10
2018-03-22T10:31:25.507Z,22.90
2018-03-22T10:32:25.417Z,24.40
2018-03-22T10:33:25.391Z,23.70
2018-03-22T10:34:25.273Z,23.50
2018-03-22T10:35:25.239Z,24.10
2018-03-22T10:36:25.560Z,24.20
2018-03-22T10:37:25.039Z,22.90
2018-03-22T10:38:24.943Z,23.90
2018-03-22T10:39:24.889Z,23.40
2018-03-22T10:40:24.790Z,24.50
2018-03-22T10:41:24.702Z,22.90
2018-03-22T10:42:24.604Z,23.20
2018-03-22T10:43:24.554Z,23.10
2018-03-22T10:44:24.453Z,23.40
2018-03-22T10:45:24.370Z,23.90
2018-03-22T10:46:24.282Z,22.40
2018-03-22T10:47:24.217Z,22.70
2018-03-22T10:48:24.191Z,21.70
2018-03-22T10:49:24.043Z,22.10
2018-03-22T10:50:23.956Z,21.60
2018-03-22T10:51:23.915Z,21.40
2018-03-22T10:52:23.799Z,22.20
2018-03-22T10:53:23.732Z,23.10
2018-03-22T10:54:23.627Z,21.70
2018-03-22T10:55:23.557Z,21.10
2018-03-22T10:56:23.484Z,21.50
2018-03-22T10:57:23.382Z,20.40
2018-03-22T10:58:23.333Z,20.10
2018-03-22T10:59:23.231Z,21.70
2018-03-22T11:00:23.242Z,20.00
2018-03-22T11:01:23.075Z,20.30
2018-03-22T11:02:23.011Z,19.60
2018-03-22T11:03:23.039Z,19.50
2018-03-22T11:04:22.813Z,19.20
2018-03-22T11:05:22.748Z,20.20
2018-03-22T11:06:22.761Z,19.10
2018-03-22T11:07:22.580Z,19.00
2018-03-22T11:08:22.506Z,19.40
2018-03-22T11:09:22.423Z,18.20
2018-03-22T11:10:22.326Z,19.50
2018-03-22T11:11:22.245Z,18.50
2018-03-22T11:12:22.170Z,18.50
2018-03-22T11:13:22.164Z,18.50
2018-03-22T11:14:21.993Z,19.30
2018-03-22T11:15:21.924Z,18.90
2018-03-22T11:16:21.841Z,18.00
2018-03-22T11:17:21.749Z,19.50
2018-03-22T11:18:21.690Z,18.90
2018-03-22T11:19:22.613Z,19.10
2018-03-22T11:20:21.508Z,18.80
2018-03-22T11:21:21.425Z,18.30
2018-03-22T11:22:21.362Z,19.10
2018-03-22T11:23:21.307Z,18.40
2018-03-22T11:24:21.212Z,18.70
2018-03-22T11:25:21.119Z,18.70
2018-03-22T11:26:21.061Z,19.20
2018-03-22T11:27:20.938Z,18.60
2018-03-22T11:28:20.850Z,19.00
2018-03-22T11:29:20.936Z,18.80
2018-03-22T11:30:20.686Z,18.40
2018-03-22T11:31:20.621Z,18.20
2018-03-22T11:32:20.525Z,18.30
2018-03-22T11:33:20.457Z,18.50
2018-03-22T11:34:20.445Z,18.90
2018-03-22T11:35:21.057Z,19.00
2018-03-22T11:36:20.207Z,18.60
2018-03-22T11:37:20.147Z,18.50
2018-03-22T11:38:20.029Z,19.00
2018-03-22T11:39:20.054Z,18.40
2018-03-22T11:40:19.902Z,18.40
2018-03-22T11:41:19.847Z,17.90
2018-03-22T11:42:19.731Z,18.20
2018-03-22T11:43:19.644Z,18.40
2018-03-22T11:44:19.552Z,17.90
2018-03-22T11:45:19.499Z,18.40
2018-03-22T11:46:19.392Z,19.00
2018-03-22T11:47:19.322Z,17.40
2018-03-22T11:48:19.250Z,17.70
2018-03-22T11:49:19.155Z,18.30
2018-03-22T11:50:19.096Z,17.60
2018-03-22T11:51:19.020Z,18.60
2018-03-22T11:52:18.907Z,17.50
2018-03-22T11:53:18.824Z,18.50
2018-03-22T11:54:18.749Z,18.20
2018-03-22T11:55:18.698Z,18.70
2018-03-22T11:56:18.597Z,18.90
2018-03-22T11:57:18.505Z,19.40
2018-03-22T11:58:18.410Z,19.20
2018-03-22T11:59:18.345Z,19.60
2018-03-22T12:00:18.269Z,19.40
2018-03-22T12:01:18.199Z,19.90
2018-03-22T12:02:18.169Z,18.80
2018-03-22T12:03:18.027Z,19.50
2018-03-22T12:04:17.946Z,19.70
2018-03-22T12:05:17.880Z,19.70
2018-03-22T12:06:17.775Z,20.30
2018-03-22T12:07:17.749Z,20.30
2018-03-22T12:08:17.593Z,20.30
2018-03-22T12:09:17.533Z,20.50
2018-03-22T12:10:17.440Z,20.00
2018-03-22T12:11:17.407Z,20.70
2018-03-22T12:12:17.274Z,20.60
2018-03-22T12:13:17.215Z,20.40
2018-03-22T12:14:17.115Z,20.50
2018-03-22T12:15:17.064Z,20.40
2018-03-22T12:16:16.969Z,19.20
2018-03-22T12:17:16.886Z,21.30
2018-03-22T12:18:16.789Z,19.90
2018-03-22T12:19:16.719Z,20.60
2018-03-22T12:20:16.639Z,20.70
2018-03-22T12:21:16.565Z,20.80
2018-03-22T12:22:16.472Z,20.70
2018-03-22T12:23:16.390Z,20.60
2018-03-22T12:24:16.296Z,20.00
2018-03-22T12:25:16.229Z,20.20
2018-03-22T12:26:16.170Z,20.60
2018-03-22T12:27:16.170Z,20.30
2018-03-22T12:28:15.977Z,21.20
2018-03-22T12:29:15.920Z,21.10
2018-03-22T12:30:15.821Z,21.10
2018-03-22T12:31:15.860Z,19.80
2018-03-22T12:32:15.698Z,21.10
2018-03-22T12:33:15.662Z,21.00
2018-03-22T12:34:15.496Z,21.70
2018-03-22T12:35:15.479Z,21.20
2018-03-22T12:36:15.320Z,22.20
2018-03-22T12:37:15.315Z,22.00
2018-03-22T12:38:15.205Z,23.00
2018-03-22T12:39:15.187Z,21.40
2018-03-22T12:40:15.003Z,21.40
2018-03-22T12:41:14.998Z,21.80
2018-03-22T12:42:14.843Z,21.90
2018-03-22T12:43:14.842Z,22.20
2018-03-22T12:44:14.683Z,21.70
2018-03-22T12:45:14.722Z,22.10
2018-03-22T12:46:14.532Z,21.20
2018-03-22T12:47:14.520Z,22.60
2018-03-22T12:48:14.377Z,22.30
2018-03-22T12:49:14.373Z,22.00
2018-03-22T12:50:14.210Z,21.40
2018-03-22T12:51:14.236Z,21.90
2018-03-22T12:52:14.042Z,22.60
2018-03-22T12:53:14.048Z,22.40
2018-03-22T12:54:13.899Z,22.40
2018-03-22T12:55:13.913Z,23.10
2018-03-22T12:56:13.702Z,23.70
2018-03-22T12:57:13.667Z,22.40
2018-03-22T12:58:13.542Z,22.70
2018-03-22T12:59:13.605Z,22.50
2018-03-22T13:00:13.378Z,23.60
2018-03-22T13:01:13.383Z,23.50